sensor_id;sensor_type;location;lat;lon;timestamp;P1;durP1;ratioP1;P2;durP2;ratioP2
12846;SDS011;6492;48.128;8.320;2023-04-22T00:00:17;1.10;;;1.00;;
12846;SDS011;6492;48.128;8.320;2023-04-22T00:04:25;1.00;;;0.90;;
12846;SDS011;6492;48.128;8.320;2023-04-22T00:08:27;1.30;;;1.20;;
12846;SDS011;6492;48.128;8.320;2023-04-22T00:12:30;1.40;;;1.30;;
12846;SDS011;6492;48.128;8.320;2023-04-22T00:16:32;1.63;;;1.53;;
12846;SDS011;6492;48.128;8.320;2023-04-22T00:20:33;1.57;;;1.40;;
12846;SDS011;6492;48.128;8.320;2023-04-22T00:24:35;1.60;;;1.50;;
12846;SDS011;6492;48.128;8.320;2023-04-22T00:28:38;2.00;;;1.83;;
12846;SDS011;6492;48.128;8.320;2023-04-22T00:32:40;1.70;;;1.60;;
12846;SDS011;6492;48.128;8.320;2023-04-22T00:36:42;2.60;;;2.03;;
12846;SDS011;6492;48.128;8.320;2023-04-22T00:40:44;2.90;;;2.47;;
12846;SDS011;6492;48.128;8.320;2023-04-22T00:44:47;2.63;;;2.43;;
12846;SDS011;6492;48.128;8.320;2023-04-22T00:48:50;2.47;;;2.27;;
12846;SDS011;6492;48.128;8.320;2023-04-22T00:53:01;3.20;;;2.57;;
12846;SDS011;6492;48.128;8.320;2023-04-22T00:57:03;2.60;;;2.40;;
12846;SDS011;6492;48.128;8.320;2023-04-22T01:01:07;3.17;;;2.80;;
12846;SDS011;6492;48.128;8.320;2023-04-22T01:05:09;3.63;;;2.50;;
12846;SDS011;6492;48.128;8.320;2023-04-22T01:09:11;2.67;;;2.47;;
12846;SDS011;6492;48.128;8.320;2023-04-22T01:13:13;2.67;;;2.40;;
12846;SDS011;6492;48.128;8.320;2023-04-22T01:17:16;2.90;;;2.27;;
12846;SDS011;6492;48.128;8.320;2023-04-22T01:21:18;4.13;;;2.90;;
12846;SDS011;6492;48.128;8.320;2023-04-22T01:25:21;4.37;;;3.00;;
12846;SDS011;6492;48.128;8.320;2023-04-22T01:29:23;3.70;;;2.90;;
12846;SDS011;6492;48.128;8.320;2023-04-22T01:33:26;3.67;;;2.93;;
12846;SDS011;6492;48.128;8.320;2023-04-22T01:37:28;3.30;;;3.00;;
12846;SDS011;6492;48.128;8.320;2023-04-22T01:41:31;4.67;;;3.27;;
12846;SDS011;6492;48.128;8.320;2023-04-22T01:45:33;5.37;;;3.30;;
12846;SDS011;6492;48.128;8.320;2023-04-22T01:49:35;3.10;;;2.80;;
12846;SDS011;6492;48.128;8.320;2023-04-22T01:53:37;2.67;;;2.37;;
12846;SDS011;6492;48.128;8.320;2023-04-22T01:57:40;4.07;;;2.40;;
12846;SDS011;6492;48.128;8.320;2023-04-22T02:01:42;2.97;;;2.10;;
12846;SDS011;6492;48.128;8.320;2023-04-22T02:05:44;2.03;;;1.83;;
12846;SDS011;6492;48.128;8.320;2023-04-22T02:09:46;1.80;;;1.70;;
12846;SDS011;6492;48.128;8.320;2023-04-22T02:13:49;1.60;;;1.50;;
12846;SDS011;6492;48.128;8.320;2023-04-22T02:17:51;1.90;;;1.70;;
12846;SDS011;6492;48.128;8.320;2023-04-22T02:21:53;2.67;;;1.73;;
12846;SDS011;6492;48.128;8.320;2023-04-22T02:25:55;1.90;;;1.70;;
12846;SDS011;6492;48.128;8.320;2023-04-22T02:29:58;1.50;;;1.40;;
12846;SDS011;6492;48.128;8.320;2023-04-22T02:34:00;1.73;;;1.63;;
12846;SDS011;6492;48.128;8.320;2023-04-22T02:38:02;2.20;;;1.50;;
12846;SDS011;6492;48.128;8.320;2023-04-22T02:42:04;1.73;;;1.43;;
12846;SDS011;6492;48.128;8.320;2023-04-22T02:46:07;1.70;;;1.60;;
12846;SDS011;6492;48.128;8.320;2023-04-22T02:54:44;2.10;;;1.73;;
12846;SDS011;6492;48.128;8.320;2023-04-22T02:58:46;1.50;;;1.40;;
12846;SDS011;6492;48.128;8.320;2023-04-22T03:02:49;2.03;;;1.70;;
12846;SDS011;6492;48.128;8.320;2023-04-22T03:06:51;1.60;;;1.50;;
12846;SDS011;6492;48.128;8.320;2023-04-22T03:10:52;1.60;;;1.40;;
12846;SDS011;6492;48.128;8.320;2023-04-22T03:14:54;1.70;;;1.60;;
12846;SDS011;6492;48.128;8.320;2023-04-22T03:18:57;1.50;;;1.40;;
12846;SDS011;6492;48.128;8.320;2023-04-22T03:22:59;1.70;;;1.60;;
12846;SDS011;6492;48.128;8.320;2023-04-22T03:27:01;1.83;;;1.53;;
12846;SDS011;6492;48.128;8.320;2023-04-22T03:31:03;1.50;;;1.40;;
12846;SDS011;6492;48.128;8.320;2023-04-22T03:35:07;2.63;;;1.60;;
12846;SDS011;6492;48.128;8.320;2023-04-22T03:39:09;1.50;;;1.40;;
12846;SDS011;6492;48.128;8.320;2023-04-22T03:43:11;3.27;;;1.60;;
12846;SDS011;6492;48.128;8.320;2023-04-22T03:47:12;1.80;;;1.33;;
12846;SDS011;6492;48.128;8.320;2023-04-22T03:51:16;1.80;;;1.70;;
12846;SDS011;6492;48.128;8.320;2023-04-22T03:55:17;3.63;;;1.70;;
12846;SDS011;6492;48.128;8.320;2023-04-22T03:59:19;2.40;;;1.33;;
12846;SDS011;6492;48.128;8.320;2023-04-22T04:03:21;1.63;;;1.53;;
12846;SDS011;6492;48.128;8.320;2023-04-22T04:07:24;1.40;;;1.30;;
12846;SDS011;6492;48.128;8.320;2023-04-22T04:16:02;1.93;;;1.47;;
12846;SDS011;6492;48.128;8.320;2023-04-22T04:20:04;1.50;;;1.40;;
12846;SDS011;6492;48.128;8.320;2023-04-22T04:24:08;2.07;;;1.30;;
12846;SDS011;6492;48.128;8.320;2023-04-22T04:28:10;2.63;;;1.57;;
12846;SDS011;6492;48.128;8.320;2023-04-22T04:32:12;2.27;;;1.60;;
12846;SDS011;6492;48.128;8.320;2023-04-22T04:36:15;2.60;;;1.50;;
12846;SDS011;6492;48.128;8.320;2023-04-22T04:40:18;1.33;;;1.23;;
12846;SDS011;6492;48.128;8.320;2023-04-22T04:44:20;2.13;;;1.37;;
12846;SDS011;6492;48.128;8.320;2023-04-22T04:48:22;3.13;;;1.50;;
12846;SDS011;6492;48.128;8.320;2023-04-22T04:56:51;2.77;;;1.63;;
12846;SDS011;6492;48.128;8.320;2023-04-22T05:00:53;3.80;;;1.73;;
12846;SDS011;6492;48.128;8.320;2023-04-22T05:04:54;1.47;;;1.37;;
12846;SDS011;6492;48.128;8.320;2023-04-22T05:08:56;2.47;;;1.50;;
12846;SDS011;6492;48.128;8.320;2023-04-22T05:12:59;1.70;;;1.60;;
12846;SDS011;6492;48.128;8.320;2023-04-22T05:17:01;2.60;;;1.40;;
12846;SDS011;6492;48.128;8.320;2023-04-22T05:21:03;2.03;;;1.40;;
12846;SDS011;6492;48.128;8.320;2023-04-22T05:25:05;1.57;;;1.47;;
12846;SDS011;6492;48.128;8.320;2023-04-22T05:29:09;1.70;;;1.60;;
12846;SDS011;6492;48.128;8.320;2023-04-22T05:33:11;2.17;;;1.50;;
12846;SDS011;6492;48.128;8.320;2023-04-22T05:37:13;1.43;;;1.33;;
12846;SDS011;6492;48.128;8.320;2023-04-22T05:41:15;1.57;;;1.40;;
12846;SDS011;6492;48.128;8.320;2023-04-22T05:45:18;1.70;;;1.43;;
12846;SDS011;6492;48.128;8.320;2023-04-22T05:49:19;1.40;;;1.30;;
12846;SDS011;6492;48.128;8.320;2023-04-22T05:53:21;3.43;;;1.67;;
12846;SDS011;6492;48.128;8.320;2023-04-22T05:57:23;2.80;;;1.40;;
12846;SDS011;6492;48.128;8.320;2023-04-22T06:01:26;1.83;;;1.60;;
12846;SDS011;6492;48.128;8.320;2023-04-22T06:05:31;2.00;;;1.80;;
12846;SDS011;6492;48.128;8.320;2023-04-22T06:09:33;1.70;;;1.50;;
12846;SDS011;6492;48.128;8.320;2023-04-22T06:13:35;2.30;;;1.50;;
12846;SDS011;6492;48.128;8.320;2023-04-22T06:17:38;2.57;;;1.60;;
12846;SDS011;6492;48.128;8.320;2023-04-22T06:21:39;1.70;;;1.60;;
12846;SDS011;6492;48.128;8.320;2023-04-22T06:25:42;3.07;;;2.53;;
12846;SDS011;6492;48.128;8.320;2023-04-22T06:29:51;2.30;;;2.10;;
12846;SDS011;6492;48.128;8.320;2023-04-22T06:33:57;1.50;;;1.40;;
12846;SDS011;6492;48.128;8.320;2023-04-22T06:37:59;2.83;;;1.50;;
12846;SDS011;6492;48.128;8.320;2023-04-22T06:42:01;2.03;;;1.63;;
12846;SDS011;6492;48.128;8.320;2023-04-22T06:46:04;1.63;;;1.53;;
12846;SDS011;6492;48.128;8.320;2023-04-22T06:50:08;2.30;;;1.93;;
12846;SDS011;6492;48.128;8.320;2023-04-22T06:54:11;1.50;;;1.30;;
12846;SDS011;6492;48.128;8.320;2023-04-22T06:58:16;1.67;;;1.50;;
12846;SDS011;6492;48.128;8.320;2023-04-22T07:02:18;2.43;;;1.93;;
12846;SDS011;6492;48.128;8.320;2023-04-22T07:06:26;1.50;;;1.40;;
12846;SDS011;6492;48.128;8.320;2023-04-22T07:10:28;1.77;;;1.30;;
12846;SDS011;6492;48.128;8.320;2023-04-22T07:14:29;1.47;;;1.30;;
12846;SDS011;6492;48.128;8.320;2023-04-22T07:18:32;2.23;;;2.03;;
12846;SDS011;6492;48.128;8.320;2023-04-22T07:22:36;1.37;;;1.27;;
12846;SDS011;6492;48.128;8.320;2023-04-22T07:26:38;1.57;;;1.47;;
12846;SDS011;6492;48.128;8.320;2023-04-22T07:30:40;1.00;;;1.00;;
12846;SDS011;6492;48.128;8.320;2023-04-22T07:34:42;1.97;;;1.30;;
12846;SDS011;6492;48.128;8.320;2023-04-22T07:38:45;3.20;;;2.23;;
12846;SDS011;6492;48.128;8.320;2023-04-22T07:42:47;2.93;;;2.73;;
12846;SDS011;6492;48.128;8.320;2023-04-22T07:46:49;3.33;;;2.70;;
12846;SDS011;6492;48.128;8.320;2023-04-22T07:50:51;1.57;;;1.47;;
12846;SDS011;6492;48.128;8.320;2023-04-22T07:54:54;2.58;;;1.80;;
12846;SDS011;6492;48.128;8.320;2023-04-22T07:58:56;2.00;;;1.80;;
12846;SDS011;6492;48.128;8.320;2023-04-22T08:02:57;1.50;;;1.40;;
12846;SDS011;6492;48.128;8.320;2023-04-22T08:06:59;1.95;;;1.50;;
12846;SDS011;6492;48.128;8.320;2023-04-22T08:11:04;2.38;;;1.75;;
12846;SDS011;6492;48.128;8.320;2023-04-22T08:15:06;1.70;;;1.60;;
12846;SDS011;6492;48.128;8.320;2023-04-22T08:19:08;1.58;;;1.48;;
12846;SDS011;6492;48.128;8.320;2023-04-22T08:23:10;1.95;;;1.85;;
12846;SDS011;6492;48.128;8.320;2023-04-22T08:27:14;2.05;;;1.70;;
12846;SDS011;6492;48.128;8.320;2023-04-22T08:31:15;2.78;;;2.20;;
12846;SDS011;6492;48.128;8.320;2023-04-22T08:35:17;3.42;;;3.10;;
12846;SDS011;6492;48.128;8.320;2023-04-22T08:39:19;2.22;;;1.80;;
12846;SDS011;6492;48.128;8.320;2023-04-22T08:43:22;2.55;;;1.77;;
12846;SDS011;6492;48.128;8.320;2023-04-22T08:47:26;2.63;;;1.73;;
12846;SDS011;6492;48.128;8.320;2023-04-22T08:51:28;8.52;;;7.65;;
12846;SDS011;6492;48.128;8.320;2023-04-22T08:55:32;2.40;;;2.00;;
12846;SDS011;6492;48.128;8.320;2023-04-22T08:59:36;2.15;;;1.90;;
12846;SDS011;6492;48.128;8.320;2023-04-22T09:03:38;3.90;;;2.00;;
12846;SDS011;6492;48.128;8.320;2023-04-22T09:07:41;2.63;;;1.90;;
12846;SDS011;6492;48.128;8.320;2023-04-22T09:11:43;2.67;;;2.20;;
12846;SDS011;6492;48.128;8.320;2023-04-22T09:15:46;4.80;;;2.10;;
12846;SDS011;6492;48.128;8.320;2023-04-22T09:19:51;3.25;;;2.00;;
12846;SDS011;6492;48.128;8.320;2023-04-22T09:23:59;4.10;;;2.13;;
12846;SDS011;6492;48.128;8.320;2023-04-22T09:28:02;2.67;;;2.13;;
12846;SDS011;6492;48.128;8.320;2023-04-22T09:32:11;2.38;;;1.90;;
12846;SDS011;6492;48.128;8.320;2023-04-22T09:36:13;3.30;;;2.50;;
12846;SDS011;6492;48.128;8.320;2023-04-22T09:40:15;3.08;;;2.28;;
12846;SDS011;6492;48.128;8.320;2023-04-22T09:44:19;3.20;;;2.40;;
12846;SDS011;6492;48.128;8.320;2023-04-22T09:48:42;3.20;;;1.95;;
12846;SDS011;6492;48.128;8.320;2023-04-22T09:52:44;5.53;;;2.30;;
12846;SDS011;6492;48.128;8.320;2023-04-22T09:56:53;2.17;;;1.98;;
12846;SDS011;6492;48.128;8.320;2023-04-22T10:00:56;2.00;;;1.90;;
12846;SDS011;6492;48.128;8.320;2023-04-22T10:05:00;2.33;;;1.90;;
12846;SDS011;6492;48.128;8.320;2023-04-22T10:09:02;2.47;;;1.80;;
12846;SDS011;6492;48.128;8.320;2023-04-22T10:13:05;2.40;;;2.20;;
12846;SDS011;6492;48.128;8.320;2023-04-22T10:17:07;3.08;;;1.90;;
12846;SDS011;6492;48.128;8.320;2023-04-22T10:21:11;2.40;;;2.03;;
12846;SDS011;6492;48.128;8.320;2023-04-22T10:25:20;2.50;;;1.85;;
12846;SDS011;6492;48.128;8.320;2023-04-22T10:29:23;4.00;;;1.98;;
12846;SDS011;6492;48.128;8.320;2023-04-22T10:33:37;2.22;;;1.98;;
12846;SDS011;6492;48.128;8.320;2023-04-22T10:37:44;2.28;;;1.90;;
12846;SDS011;6492;48.128;8.320;2023-04-22T10:41:51;4.30;;;2.05;;
12846;SDS011;6492;48.128;8.320;2023-04-22T10:45:55;2.30;;;2.10;;
12846;SDS011;6492;48.128;8.320;2023-04-22T10:50:16;2.53;;;2.13;;
12846;SDS011;6492;48.128;8.320;2023-04-22T10:58:57;2.42;;;2.10;;
12846;SDS011;6492;48.128;8.320;2023-04-22T11:03:09;3.17;;;1.92;;
12846;SDS011;6492;48.128;8.320;2023-04-22T11:11:38;2.80;;;1.80;;
12846;SDS011;6492;48.128;8.320;2023-04-22T11:15:46;3.17;;;1.90;;
12846;SDS011;6492;48.128;8.320;2023-04-22T11:19:49;2.30;;;2.00;;
12846;SDS011;6492;48.128;8.320;2023-04-22T11:24:03;38.47;;;7.15;;
12846;SDS011;6492;48.128;8.320;2023-04-22T11:28:06;3.38;;;2.10;;
12846;SDS011;6492;48.128;8.320;2023-04-22T11:32:08;2.97;;;2.25;;
12846;SDS011;6492;48.128;8.320;2023-04-22T11:36:11;3.10;;;2.22;;
12846;SDS011;6492;48.128;8.320;2023-04-22T11:40:14;3.20;;;2.60;;
12846;SDS011;6492;48.128;8.320;2023-04-22T11:44:21;3.03;;;2.30;;
12846;SDS011;6492;48.128;8.320;2023-04-22T11:48:24;3.15;;;2.45;;
12846;SDS011;6492;48.128;8.320;2023-04-22T11:52:39;3.78;;;2.30;;
12846;SDS011;6492;48.128;8.320;2023-04-22T11:56:43;2.85;;;2.20;;
12846;SDS011;6492;48.128;8.320;2023-04-22T12:00:50;3.33;;;2.22;;
12846;SDS011;6492;48.128;8.320;2023-04-22T12:04:53;2.60;;;2.22;;
12846;SDS011;6492;48.128;8.320;2023-04-22T12:08:59;3.45;;;2.30;;
12846;SDS011;6492;48.128;8.320;2023-04-22T12:22:34;2.42;;;2.22;;
12846;SDS011;6492;48.128;8.320;2023-04-22T12:31:05;3.72;;;3.05;;
12846;SDS011;6492;48.128;8.320;2023-04-22T12:35:08;2.05;;;1.80;;
12846;SDS011;6492;48.128;8.320;2023-04-22T12:39:11;3.35;;;2.05;;
12846;SDS011;6492;48.128;8.320;2023-04-22T12:43:14;2.78;;;2.08;;
12846;SDS011;6492;48.128;8.320;2023-04-22T12:47:16;3.58;;;3.10;;
12846;SDS011;6492;48.128;8.320;2023-04-22T12:51:17;2.35;;;2.13;;
12846;SDS011;6492;48.128;8.320;2023-04-22T12:55:21;2.75;;;2.00;;
12846;SDS011;6492;48.128;8.320;2023-04-22T12:59:22;2.47;;;2.17;;
12846;SDS011;6492;48.128;8.320;2023-04-22T13:03:24;3.13;;;2.10;;
12846;SDS011;6492;48.128;8.320;2023-04-22T13:07:26;3.50;;;2.10;;
12846;SDS011;6492;48.128;8.320;2023-04-22T13:11:29;2.75;;;2.30;;
12846;SDS011;6492;48.128;8.320;2023-04-22T13:15:31;2.42;;;2.20;;
12846;SDS011;6492;48.128;8.320;2023-04-22T13:19:33;2.88;;;1.92;;
12846;SDS011;6492;48.128;8.320;2023-04-22T13:23:35;3.00;;;2.30;;
12846;SDS011;6492;48.128;8.320;2023-04-22T13:27:38;3.47;;;2.10;;
12846;SDS011;6492;48.128;8.320;2023-04-22T13:31:40;3.90;;;2.08;;
12846;SDS011;6492;48.128;8.320;2023-04-22T13:35:43;2.17;;;1.98;;
12846;SDS011;6492;48.128;8.320;2023-04-22T13:39:45;2.03;;;1.83;;
12846;SDS011;6492;48.128;8.320;2023-04-22T13:43:48;2.47;;;2.28;;
12846;SDS011;6492;48.128;8.320;2023-04-22T13:47:53;2.30;;;2.10;;
12846;SDS011;6492;48.128;8.320;2023-04-22T13:51:55;4.43;;;2.08;;
12846;SDS011;6492;48.128;8.320;2023-04-22T13:55:57;3.15;;;2.05;;
12846;SDS011;6492;48.128;8.320;2023-04-22T14:00:00;2.25;;;2.00;;
12846;SDS011;6492;48.128;8.320;2023-04-22T14:04:02;3.53;;;2.83;;
12846;SDS011;6492;48.128;8.320;2023-04-22T14:08:04;3.95;;;2.78;;
12846;SDS011;6492;48.128;8.320;2023-04-22T14:12:06;3.10;;;2.40;;
12846;SDS011;6492;48.128;8.320;2023-04-22T14:16:11;3.65;;;2.38;;
12846;SDS011;6492;48.128;8.320;2023-04-22T14:20:14;4.28;;;2.50;;
12846;SDS011;6492;48.128;8.320;2023-04-22T14:24:26;3.58;;;2.33;;
12846;SDS011;6492;48.128;8.320;2023-04-22T14:28:28;4.50;;;2.33;;
12846;SDS011;6492;48.128;8.320;2023-04-22T14:32:31;2.72;;;2.53;;
12846;SDS011;6492;48.128;8.320;2023-04-22T14:36:33;3.38;;;2.40;;
12846;SDS011;6492;48.128;8.320;2023-04-22T14:40:36;3.45;;;2.47;;
12846;SDS011;6492;48.128;8.320;2023-04-22T14:44:38;2.58;;;2.30;;
12846;SDS011;6492;48.128;8.320;2023-04-22T14:48:41;8.23;;;2.92;;
12846;SDS011;6492;48.128;8.320;2023-04-22T14:52:42;4.78;;;2.83;;
12846;SDS011;6492;48.128;8.320;2023-04-22T14:56:44;2.90;;;2.65;;
12846;SDS011;6492;48.128;8.320;2023-04-22T15:00:47;2.90;;;2.22;;
12846;SDS011;6492;48.128;8.320;2023-04-22T15:04:50;3.15;;;2.30;;
12846;SDS011;6492;48.128;8.320;2023-04-22T15:08:52;3.33;;;2.40;;
12846;SDS011;6492;48.128;8.320;2023-04-22T15:12:54;2.40;;;2.20;;
12846;SDS011;6492;48.128;8.320;2023-04-22T15:16:56;2.58;;;2.15;;
12846;SDS011;6492;48.128;8.320;2023-04-22T15:20:59;2.60;;;2.38;;
12846;SDS011;6492;48.128;8.320;2023-04-22T15:25:02;3.05;;;2.20;;
12846;SDS011;6492;48.128;8.320;2023-04-22T15:29:04;2.97;;;2.65;;
12846;SDS011;6492;48.128;8.320;2023-04-22T15:33:06;4.33;;;2.80;;
12846;SDS011;6492;48.128;8.320;2023-04-22T15:37:09;3.70;;;2.17;;
12846;SDS011;6492;48.128;8.320;2023-04-22T15:41:11;3.57;;;2.70;;
12846;SDS011;6492;48.128;8.320;2023-04-22T15:45:13;3.83;;;2.73;;
12846;SDS011;6492;48.128;8.320;2023-04-22T15:49:15;3.10;;;2.60;;
12846;SDS011;6492;48.128;8.320;2023-04-22T15:53:18;4.47;;;2.97;;
12846;SDS011;6492;48.128;8.320;2023-04-22T15:57:19;4.32;;;2.90;;
12846;SDS011;6492;48.128;8.320;2023-04-22T16:01:21;4.47;;;2.70;;
12846;SDS011;6492;48.128;8.320;2023-04-22T16:05:23;3.40;;;3.10;;
12846;SDS011;6492;48.128;8.320;2023-04-22T16:09:26;3.50;;;3.07;;
12846;SDS011;6492;48.128;8.320;2023-04-22T16:13:28;4.67;;;2.83;;
12846;SDS011;6492;48.128;8.320;2023-04-22T16:17:30;6.70;;;3.57;;
12846;SDS011;6492;48.128;8.320;2023-04-22T16:21:32;3.60;;;3.30;;
12846;SDS011;6492;48.128;8.320;2023-04-22T16:25:35;3.60;;;3.30;;
12846;SDS011;6492;48.128;8.320;2023-04-22T16:29:37;4.53;;;3.20;;
12846;SDS011;6492;48.128;8.320;2023-04-22T16:33:39;3.80;;;3.20;;
12846;SDS011;6492;48.128;8.320;2023-04-22T16:37:40;4.43;;;3.30;;
12846;SDS011;6492;48.128;8.320;2023-04-22T16:41:44;4.60;;;3.10;;
12846;SDS011;6492;48.128;8.320;2023-04-22T16:45:46;4.77;;;3.10;;
12846;SDS011;6492;48.128;8.320;2023-04-22T16:49:47;4.20;;;3.27;;
12846;SDS011;6492;48.128;8.320;2023-04-22T16:53:49;4.07;;;3.53;;
12846;SDS011;6492;48.128;8.320;2023-04-22T16:57:52;4.17;;;3.00;;
12846;SDS011;6492;48.128;8.320;2023-04-22T17:01:54;3.43;;;2.83;;
12846;SDS011;6492;48.128;8.320;2023-04-22T17:05:56;4.70;;;3.10;;
12846;SDS011;6492;48.128;8.320;2023-04-22T17:09:58;3.60;;;3.03;;
12846;SDS011;6492;48.128;8.320;2023-04-22T17:14:01;4.33;;;2.40;;
12846;SDS011;6492;48.128;8.320;2023-04-22T17:18:03;3.03;;;2.83;;
12846;SDS011;6492;48.128;8.320;2023-04-22T17:22:06;3.83;;;3.17;;
12846;SDS011;6492;48.128;8.320;2023-04-22T17:26:08;3.53;;;2.83;;
12846;SDS011;6492;48.128;8.320;2023-04-22T17:30:12;3.57;;;2.83;;
12846;SDS011;6492;48.128;8.320;2023-04-22T17:34:14;4.90;;;2.93;;
12846;SDS011;6492;48.128;8.320;2023-04-22T17:38:16;3.53;;;2.70;;
12846;SDS011;6492;48.128;8.320;2023-04-22T17:42:18;5.53;;;2.87;;
12846;SDS011;6492;48.128;8.320;2023-04-22T17:46:21;2.97;;;2.73;;
12846;SDS011;6492;48.128;8.320;2023-04-22T17:50:23;4.93;;;2.80;;
12846;SDS011;6492;48.128;8.320;2023-04-22T17:54:25;2.50;;;2.30;;
12846;SDS011;6492;48.128;8.320;2023-04-22T17:58:27;3.10;;;2.80;;
12846;SDS011;6492;48.128;8.320;2023-04-22T18:02:30;2.93;;;2.60;;
12846;SDS011;6492;48.128;8.320;2023-04-22T18:06:32;2.77;;;2.47;;
12846;SDS011;6492;48.128;8.320;2023-04-22T18:10:34;4.87;;;3.30;;
12846;SDS011;6492;48.128;8.320;2023-04-22T18:14:35;6.20;;;3.73;;
12846;SDS011;6492;48.128;8.320;2023-04-22T18:18:38;3.87;;;3.03;;
12846;SDS011;6492;48.128;8.320;2023-04-22T18:22:40;5.80;;;3.90;;
12846;SDS011;6492;48.128;8.320;2023-04-22T18:26:42;10.13;;;7.10;;
12846;SDS011;6492;48.128;8.320;2023-04-22T18:30:46;7.63;;;4.37;;
12846;SDS011;6492;48.128;8.320;2023-04-22T18:34:49;3.00;;;2.70;;
12846;SDS011;6492;48.128;8.320;2023-04-22T18:38:54;5.00;;;4.43;;
12846;SDS011;6492;48.128;8.320;2023-04-22T18:42:56;4.53;;;4.00;;
12846;SDS011;6492;48.128;8.320;2023-04-22T18:46:58;4.97;;;3.77;;
12846;SDS011;6492;48.128;8.320;2023-04-22T18:51:01;3.40;;;3.10;;
12846;SDS011;6492;48.128;8.320;2023-04-22T18:55:03;4.63;;;3.00;;
12846;SDS011;6492;48.128;8.320;2023-04-22T18:59:05;5.57;;;3.03;;
12846;SDS011;6492;48.128;8.320;2023-04-22T19:03:07;3.73;;;3.37;;
12846;SDS011;6492;48.128;8.320;2023-04-22T19:07:10;4.60;;;4.10;;
12846;SDS011;6492;48.128;8.320;2023-04-22T19:11:12;5.17;;;4.67;;
12846;SDS011;6492;48.128;8.320;2023-04-22T19:15:15;5.83;;;5.33;;
12846;SDS011;6492;48.128;8.320;2023-04-22T19:19:18;6.93;;;6.23;;
12846;SDS011;6492;48.128;8.320;2023-04-22T19:23:22;4.80;;;4.10;;
12846;SDS011;6492;48.128;8.320;2023-04-22T19:27:23;4.23;;;3.60;;
12846;SDS011;6492;48.128;8.320;2023-04-22T19:31:26;5.43;;;3.60;;
12846;SDS011;6492;48.128;8.320;2023-04-22T19:35:28;3.60;;;2.93;;
12846;SDS011;6492;48.128;8.320;2023-04-22T19:39:31;4.43;;;3.90;;
12846;SDS011;6492;48.128;8.320;2023-04-22T19:43:33;3.40;;;3.00;;
12846;SDS011;6492;48.128;8.320;2023-04-22T19:47:36;4.00;;;2.60;;
12846;SDS011;6492;48.128;8.320;2023-04-22T19:51:48;2.90;;;2.37;;
12846;SDS011;6492;48.128;8.320;2023-04-22T19:55:55;3.97;;;3.07;;
12846;SDS011;6492;48.128;8.320;2023-04-22T19:59:57;4.83;;;2.50;;
12846;SDS011;6492;48.128;8.320;2023-04-22T20:04:06;3.53;;;3.07;;
12846;SDS011;6492;48.128;8.320;2023-04-22T20:08:09;3.57;;;2.57;;
12846;SDS011;6492;48.128;8.320;2023-04-22T20:12:16;5.57;;;3.37;;
12846;SDS011;6492;48.128;8.320;2023-04-22T20:16:31;3.43;;;3.13;;
12846;SDS011;6492;48.128;8.320;2023-04-22T20:20:45;4.30;;;2.77;;
12846;SDS011;6492;48.128;8.320;2023-04-22T20:24:50;4.27;;;2.67;;
12846;SDS011;6492;48.128;8.320;2023-04-22T20:29:02;3.63;;;3.00;;
12846;SDS011;6492;48.128;8.320;2023-04-22T20:33:07;3.47;;;2.90;;
12846;SDS011;6492;48.128;8.320;2023-04-22T20:37:11;4.17;;;2.60;;
12846;SDS011;6492;48.128;8.320;2023-04-22T20:41:13;4.53;;;2.80;;
12846;SDS011;6492;48.128;8.320;2023-04-22T20:45:21;4.87;;;2.70;;
12846;SDS011;6492;48.128;8.320;2023-04-22T20:49:23;3.30;;;2.50;;
12846;SDS011;6492;48.128;8.320;2023-04-22T20:53:28;4.30;;;2.87;;
12846;SDS011;6492;48.128;8.320;2023-04-22T20:57:33;4.00;;;2.40;;
12846;SDS011;6492;48.128;8.320;2023-04-22T21:06:05;4.37;;;2.80;;
12846;SDS011;6492;48.128;8.320;2023-04-22T21:10:08;3.53;;;2.53;;
12846;SDS011;6492;48.128;8.320;2023-04-22T21:14:26;6.73;;;2.83;;
12846;SDS011;6492;48.128;8.320;2023-04-22T21:18:33;4.10;;;2.80;;
12846;SDS011;6492;48.128;8.320;2023-04-22T21:27:07;3.77;;;2.63;;
12846;SDS011;6492;48.128;8.320;2023-04-22T21:35:23;4.70;;;2.43;;
12846;SDS011;6492;48.128;8.320;2023-04-22T21:39:26;4.77;;;2.83;;
12846;SDS011;6492;48.128;8.320;2023-04-22T21:43:29;3.17;;;2.73;;
12846;SDS011;6492;48.128;8.320;2023-04-22T21:47:30;7.30;;;3.07;;
12846;SDS011;6492;48.128;8.320;2023-04-22T21:51:32;4.03;;;2.80;;
12846;SDS011;6492;48.128;8.320;2023-04-22T21:55:35;6.00;;;3.43;;
12846;SDS011;6492;48.128;8.320;2023-04-22T21:59:37;4.40;;;3.10;;
12846;SDS011;6492;48.128;8.320;2023-04-22T22:08:14;4.27;;;3.20;;
12846;SDS011;6492;48.128;8.320;2023-04-22T22:12:17;5.27;;;3.07;;
12846;SDS011;6492;48.128;8.320;2023-04-22T22:16:19;4.00;;;2.93;;
12846;SDS011;6492;48.128;8.320;2023-04-22T22:20:22;5.13;;;3.30;;
12846;SDS011;6492;48.128;8.320;2023-04-22T22:29:00;4.87;;;3.10;;
12846;SDS011;6492;48.128;8.320;2023-04-22T22:33:02;5.80;;;2.83;;
12846;SDS011;6492;48.128;8.320;2023-04-22T22:37:04;3.83;;;3.30;;
12846;SDS011;6492;48.128;8.320;2023-04-22T22:41:06;4.77;;;3.47;;
12846;SDS011;6492;48.128;8.320;2023-04-22T22:45:10;3.87;;;3.00;;
12846;SDS011;6492;48.128;8.320;2023-04-22T22:49:12;6.47;;;3.40;;
12846;SDS011;6492;48.128;8.320;2023-04-22T22:53:13;4.43;;;3.20;;
12846;SDS011;6492;48.128;8.320;2023-04-22T22:57:15;3.23;;;2.93;;
12846;SDS011;6492;48.128;8.320;2023-04-22T23:01:18;5.53;;;3.23;;
12846;SDS011;6492;48.128;8.320;2023-04-22T23:05:20;4.37;;;3.37;;
12846;SDS011;6492;48.128;8.320;2023-04-22T23:09:22;4.17;;;3.30;;
12846;SDS011;6492;48.128;8.320;2023-04-22T23:18:01;3.70;;;3.23;;
12846;SDS011;6492;48.128;8.320;2023-04-22T23:22:03;3.63;;;2.47;;
12846;SDS011;6492;48.128;8.320;2023-04-22T23:26:06;4.30;;;2.70;;
12846;SDS011;6492;48.128;8.320;2023-04-22T23:30:09;3.67;;;2.80;;
12846;SDS011;6492;48.128;8.320;2023-04-22T23:34:12;5.90;;;2.87;;
12846;SDS011;6492;48.128;8.320;2023-04-22T23:38:16;4.10;;;2.80;;
12846;SDS011;6492;48.128;8.320;2023-04-22T23:42:18;4.00;;;3.30;;
12846;SDS011;6492;48.128;8.320;2023-04-22T23:46:20;3.33;;;2.97;;
12846;SDS011;6492;48.128;8.320;2023-04-22T23:50:23;4.27;;;2.83;;
12846;SDS011;6492;48.128;8.320;2023-04-22T23:54:25;4.00;;;2.90;;
12846;SDS011;6492;48.128;8.320;2023-04-22T23:58:27;2.57;;;2.07;;
